sensor_id;sensor_type;location;lat;lon;timestamp;P1;durP1;ratioP1;P2;durP2;ratioP2
76593;SDS011;65482;50.240;14.302;2023-04-15T00:00:37;2.25;;;1.40;;
76593;SDS011;65482;50.240;14.302;2023-04-15T00:03:13;1.88;;;1.30;;
76593;SDS011;65482;50.240;14.302;2023-04-15T00:05:38;2.83;;;1.70;;
76593;SDS011;65482;50.240;14.302;2023-04-15T00:08:04;4.20;;;3.08;;
76593;SDS011;65482;50.240;14.302;2023-04-15T00:10:30;4.22;;;2.00;;
76593;SDS011;65482;50.240;14.302;2023-04-15T00:12:56;3.03;;;2.45;;
76593;SDS011;65482;50.240;14.302;2023-04-15T00:15:21;2.90;;;2.00;;
76593;SDS011;65482;50.240;14.302;2023-04-15T00:17:48;2.70;;;1.95;;
76593;SDS011;65482;50.240;14.302;2023-04-15T00:20:16;4.00;;;1.90;;
76593;SDS011;65482;50.240;14.302;2023-04-15T00:22:41;4.20;;;2.78;;
76593;SDS011;65482;50.240;14.302;2023-04-15T00:25:07;3.45;;;2.50;;
76593;SDS011;65482;50.240;14.302;2023-04-15T00:27:33;3.03;;;2.72;;
76593;SDS011;65482;50.240;14.302;2023-04-15T00:29:59;4.85;;;2.83;;
76593;SDS011;65482;50.240;14.302;2023-04-15T00:32:24;3.13;;;1.90;;
76593;SDS011;65482;50.240;14.302;2023-04-15T00:34:50;2.97;;;1.90;;
76593;SDS011;65482;50.240;14.302;2023-04-15T00:37:16;2.30;;;1.52;;
76593;SDS011;65482;50.240;14.302;2023-04-15T00:39:42;1.90;;;1.40;;
76593;SDS011;65482;50.240;14.302;2023-04-15T00:42:08;2.75;;;1.30;;
76593;SDS011;65482;50.240;14.302;2023-04-15T00:44:34;1.60;;;1.40;;
76593;SDS011;65482;50.240;14.302;2023-04-15T00:47:00;3.72;;;1.70;;
76593;SDS011;65482;50.240;14.302;2023-04-15T00:49:29;2.90;;;1.20;;
76593;SDS011;65482;50.240;14.302;2023-04-15T00:51:54;2.58;;;1.33;;
76593;SDS011;65482;50.240;14.302;2023-04-15T00:54:20;1.50;;;1.10;;
76593;SDS011;65482;50.240;14.302;2023-04-15T00:56:46;1.45;;;0.93;;
76593;SDS011;65482;50.240;14.302;2023-04-15T00:59:12;2.67;;;1.20;;
76593;SDS011;65482;50.240;14.302;2023-04-15T01:01:38;2.25;;;1.58;;
76593;SDS011;65482;50.240;14.302;2023-04-15T01:04:05;2.47;;;1.50;;
76593;SDS011;65482;50.240;14.302;2023-04-15T01:06:31;4.03;;;1.67;;
76593;SDS011;65482;50.240;14.302;2023-04-15T01:08:57;5.28;;;1.80;;
76593;SDS011;65482;50.240;14.302;2023-04-15T01:11:23;4.80;;;1.65;;
76593;SDS011;65482;50.240;14.302;2023-04-15T01:13:50;9.10;;;2.10;;
76593;SDS011;65482;50.240;14.302;2023-04-15T01:16:17;5.68;;;1.45;;
76593;SDS011;65482;50.240;14.302;2023-04-15T01:18:43;5.18;;;2.00;;
76593;SDS011;65482;50.240;14.302;2023-04-15T01:21:09;5.38;;;2.05;;
76593;SDS011;65482;50.240;14.302;2023-04-15T01:23:35;2.50;;;1.70;;
76593;SDS011;65482;50.240;14.302;2023-04-15T01:26:02;3.17;;;1.70;;
76593;SDS011;65482;50.240;14.302;2023-04-15T01:28:29;3.20;;;1.30;;
76593;SDS011;65482;50.240;14.302;2023-04-15T01:31:08;2.85;;;1.60;;
76593;SDS011;65482;50.240;14.302;2023-04-15T01:33:37;4.07;;;1.60;;
76593;SDS011;65482;50.240;14.302;2023-04-15T01:36:03;3.50;;;2.03;;
76593;SDS011;65482;50.240;14.302;2023-04-15T01:38:33;2.58;;;1.70;;
76593;SDS011;65482;50.240;14.302;2023-04-15T01:40:58;3.95;;;1.48;;
76593;SDS011;65482;50.240;14.302;2023-04-15T01:43:25;1.70;;;1.40;;
76593;SDS011;65482;50.240;14.302;2023-04-15T01:45:51;2.35;;;1.60;;
76593;SDS011;65482;50.240;14.302;2023-04-15T01:48:16;2.40;;;1.50;;
76593;SDS011;65482;50.240;14.302;2023-04-15T01:50:42;2.45;;;1.60;;
76593;SDS011;65482;50.240;14.302;2023-04-15T01:53:09;2.22;;;1.30;;
76593;SDS011;65482;50.240;14.302;2023-04-15T01:55:35;2.40;;;1.50;;
76593;SDS011;65482;50.240;14.302;2023-04-15T01:58:01;2.40;;;1.70;;
76593;SDS011;65482;50.240;14.302;2023-04-15T02:00:27;1.50;;;1.40;;
76593;SDS011;65482;50.240;14.302;2023-04-15T02:02:53;2.15;;;1.83;;
76593;SDS011;65482;50.240;14.302;2023-04-15T02:05:18;1.67;;;1.58;;
76593;SDS011;65482;50.240;14.302;2023-04-15T02:07:44;1.50;;;1.33;;
76593;SDS011;65482;50.240;14.302;2023-04-15T02:10:10;3.75;;;1.60;;
76593;SDS011;65482;50.240;14.302;2023-04-15T02:12:37;2.17;;;1.58;;
76593;SDS011;65482;50.240;14.302;2023-04-15T02:15:03;1.80;;;1.65;;
76593;SDS011;65482;50.240;14.302;2023-04-15T02:17:33;3.22;;;1.98;;
76593;SDS011;65482;50.240;14.302;2023-04-15T02:19:59;2.47;;;1.67;;
76593;SDS011;65482;50.240;14.302;2023-04-15T02:22:24;1.70;;;1.60;;
76593;SDS011;65482;50.240;14.302;2023-04-15T02:24:50;3.90;;;1.63;;
76593;SDS011;65482;50.240;14.302;2023-04-15T02:27:16;4.45;;;1.80;;
76593;SDS011;65482;50.240;14.302;2023-04-15T02:29:45;3.15;;;1.70;;
76593;SDS011;65482;50.240;14.302;2023-04-15T02:32:11;2.20;;;2.00;;
76593;SDS011;65482;50.240;14.302;2023-04-15T02:34:37;3.72;;;2.03;;
76593;SDS011;65482;50.240;14.302;2023-04-15T02:37:09;3.25;;;2.05;;
76593;SDS011;65482;50.240;14.302;2023-04-15T02:39:35;2.33;;;2.00;;
76593;SDS011;65482;50.240;14.302;2023-04-15T02:42:01;3.55;;;1.88;;
76593;SDS011;65482;50.240;14.302;2023-04-15T02:44:29;3.25;;;2.05;;
76593;SDS011;65482;50.240;14.302;2023-04-15T02:46:55;2.88;;;1.88;;
76593;SDS011;65482;50.240;14.302;2023-04-15T02:49:22;2.10;;;1.90;;
76593;SDS011;65482;50.240;14.302;2023-04-15T02:51:49;1.60;;;1.20;;
76593;SDS011;65482;50.240;14.302;2023-04-15T02:54:16;1.50;;;1.08;;
76593;SDS011;65482;50.240;14.302;2023-04-15T02:56:42;1.38;;;0.90;;
76593;SDS011;65482;50.240;14.302;2023-04-15T02:59:07;2.17;;;0.82;;
76593;SDS011;65482;50.240;14.302;2023-04-15T03:01:33;2.15;;;0.77;;
76593;SDS011;65482;50.240;14.302;2023-04-15T03:03:58;1.83;;;1.00;;
76593;SDS011;65482;50.240;14.302;2023-04-15T03:06:24;1.40;;;0.75;;
76593;SDS011;65482;50.240;14.302;2023-04-15T03:08:50;3.70;;;0.70;;
76593;SDS011;65482;50.240;14.302;2023-04-15T03:11:16;1.65;;;0.73;;
76593;SDS011;65482;50.240;14.302;2023-04-15T03:13:42;1.05;;;0.60;;
76593;SDS011;65482;50.240;14.302;2023-04-15T03:16:08;1.23;;;0.60;;
76593;SDS011;65482;50.240;14.302;2023-04-15T03:18:34;1.50;;;0.60;;
76593;SDS011;65482;50.240;14.302;2023-04-15T03:21:00;1.10;;;0.60;;
76593;SDS011;65482;50.240;14.302;2023-04-15T03:23:26;0.95;;;0.70;;
76593;SDS011;65482;50.240;14.302;2023-04-15T03:25:52;0.50;;;0.50;;
76593;SDS011;65482;50.240;14.302;2023-04-15T03:28:20;2.33;;;0.70;;
76593;SDS011;65482;50.240;14.302;2023-04-15T03:30:45;1.85;;;0.60;;
76593;SDS011;65482;50.240;14.302;2023-04-15T03:33:11;1.38;;;0.60;;
76593;SDS011;65482;50.240;14.302;2023-04-15T03:35:36;0.60;;;0.50;;
76593;SDS011;65482;50.240;14.302;2023-04-15T03:38:02;1.00;;;0.52;;
76593;SDS011;65482;50.240;14.302;2023-04-15T03:40:28;0.65;;;0.60;;
76593;SDS011;65482;50.240;14.302;2023-04-15T03:42:53;0.68;;;0.68;;
76593;SDS011;65482;50.240;14.302;2023-04-15T03:45:19;1.30;;;0.73;;
76593;SDS011;65482;50.240;14.302;2023-04-15T03:47:44;1.02;;;0.70;;
76593;SDS011;65482;50.240;14.302;2023-04-15T03:50:10;3.25;;;0.73;;
76593;SDS011;65482;50.240;14.302;2023-04-15T03:52:36;0.73;;;0.70;;
76593;SDS011;65482;50.240;14.302;2023-04-15T03:55:02;1.25;;;0.80;;
76593;SDS011;65482;50.240;14.302;2023-04-15T03:57:27;1.02;;;0.70;;
76593;SDS011;65482;50.240;14.302;2023-04-15T03:59:53;1.77;;;0.93;;
76593;SDS011;65482;50.240;14.302;2023-04-15T04:02:19;1.65;;;0.70;;
76593;SDS011;65482;50.240;14.302;2023-04-15T04:04:45;0.70;;;0.70;;
76593;SDS011;65482;50.240;14.302;2023-04-15T04:07:14;1.27;;;0.90;;
76593;SDS011;65482;50.240;14.302;2023-04-15T04:09:41;1.80;;;1.40;;
76593;SDS011;65482;50.240;14.302;2023-04-15T04:12:06;2.30;;;1.65;;
76593;SDS011;65482;50.240;14.302;2023-04-15T04:14:33;3.15;;;2.22;;
76593;SDS011;65482;50.240;14.302;2023-04-15T04:16:58;4.35;;;3.10;;
76593;SDS011;65482;50.240;14.302;2023-04-15T04:19:24;5.90;;;4.00;;
76593;SDS011;65482;50.240;14.302;2023-04-15T04:21:50;8.38;;;4.63;;
76593;SDS011;65482;50.240;14.302;2023-04-15T04:24:17;8.02;;;5.28;;
76593;SDS011;65482;50.240;14.302;2023-04-15T04:26:42;8.18;;;5.70;;
76593;SDS011;65482;50.240;14.302;2023-04-15T04:29:08;9.52;;;6.25;;
76593;SDS011;65482;50.240;14.302;2023-04-15T04:31:33;12.93;;;6.65;;
76593;SDS011;65482;50.240;14.302;2023-04-15T04:33:59;8.82;;;6.60;;
76593;SDS011;65482;50.240;14.302;2023-04-15T04:36:25;10.30;;;6.40;;
76593;SDS011;65482;50.240;14.302;2023-04-15T04:38:51;12.25;;;7.38;;
76593;SDS011;65482;50.240;14.302;2023-04-15T04:41:16;9.68;;;6.35;;
76593;SDS011;65482;50.240;14.302;2023-04-15T04:43:42;9.75;;;6.88;;
76593;SDS011;65482;50.240;14.302;2023-04-15T04:46:08;11.23;;;7.10;;
76593;SDS011;65482;50.240;14.302;2023-04-15T04:48:34;8.27;;;5.45;;
76593;SDS011;65482;50.240;14.302;2023-04-15T04:51:00;10.05;;;6.55;;
76593;SDS011;65482;50.240;14.302;2023-04-15T04:53:27;10.20;;;6.78;;
76593;SDS011;65482;50.240;14.302;2023-04-15T04:55:53;9.30;;;6.50;;
76593;SDS011;65482;50.240;14.302;2023-04-15T04:58:19;9.63;;;6.47;;
76593;SDS011;65482;50.240;14.302;2023-04-15T05:00:44;9.25;;;6.50;;
76593;SDS011;65482;50.240;14.302;2023-04-15T05:03:10;8.88;;;5.88;;
76593;SDS011;65482;50.240;14.302;2023-04-15T05:05:36;8.10;;;5.85;;
76593;SDS011;65482;50.240;14.302;2023-04-15T05:08:04;10.00;;;6.60;;
76593;SDS011;65482;50.240;14.302;2023-04-15T05:10:30;8.65;;;5.53;;
76593;SDS011;65482;50.240;14.302;2023-04-15T05:12:56;7.95;;;5.70;;
76593;SDS011;65482;50.240;14.302;2023-04-15T05:15:22;8.80;;;5.57;;
76593;SDS011;65482;50.240;14.302;2023-04-15T05:17:48;14.18;;;7.55;;
76593;SDS011;65482;50.240;14.302;2023-04-15T05:20:13;10.88;;;6.40;;
76593;SDS011;65482;50.240;14.302;2023-04-15T05:22:39;8.55;;;5.20;;
76593;SDS011;65482;50.240;14.302;2023-04-15T05:25:05;6.95;;;4.32;;
76593;SDS011;65482;50.240;14.302;2023-04-15T05:27:31;4.80;;;4.00;;
76593;SDS011;65482;50.240;14.302;2023-04-15T05:29:57;6.47;;;4.63;;
76593;SDS011;65482;50.240;14.302;2023-04-15T05:32:22;6.38;;;4.38;;
76593;SDS011;65482;50.240;14.302;2023-04-15T05:34:48;5.30;;;3.92;;
76593;SDS011;65482;50.240;14.302;2023-04-15T05:37:14;4.82;;;3.67;;
76593;SDS011;65482;50.240;14.302;2023-04-15T05:39:39;4.60;;;3.80;;
76593;SDS011;65482;50.240;14.302;2023-04-15T05:42:05;6.75;;;4.30;;
76593;SDS011;65482;50.240;14.302;2023-04-15T05:44:31;5.70;;;4.03;;
76593;SDS011;65482;50.240;14.302;2023-04-15T05:46:57;5.38;;;3.90;;
76593;SDS011;65482;50.240;14.302;2023-04-15T05:49:22;4.25;;;3.60;;
76593;SDS011;65482;50.240;14.302;2023-04-15T05:51:48;4.80;;;3.80;;
76593;SDS011;65482;50.240;14.302;2023-04-15T05:54:13;4.45;;;3.55;;
76593;SDS011;65482;50.240;14.302;2023-04-15T05:56:39;5.00;;;3.30;;
76593;SDS011;65482;50.240;14.302;2023-04-15T05:59:05;4.55;;;3.40;;
76593;SDS011;65482;50.240;14.302;2023-04-15T06:01:32;4.07;;;3.38;;
76593;SDS011;65482;50.240;14.302;2023-04-15T06:03:57;4.93;;;3.00;;
76593;SDS011;65482;50.240;14.302;2023-04-15T06:06:23;3.85;;;3.00;;
76593;SDS011;65482;50.240;14.302;2023-04-15T06:08:49;3.53;;;2.60;;
76593;SDS011;65482;50.240;14.302;2023-04-15T06:11:15;3.28;;;2.50;;
76593;SDS011;65482;50.240;14.302;2023-04-15T06:13:40;2.85;;;2.53;;
76593;SDS011;65482;50.240;14.302;2023-04-15T06:16:06;3.10;;;2.80;;
76593;SDS011;65482;50.240;14.302;2023-04-15T06:18:32;3.20;;;2.90;;
76593;SDS011;65482;50.240;14.302;2023-04-15T06:20:58;3.60;;;3.05;;
76593;SDS011;65482;50.240;14.302;2023-04-15T06:23:23;3.70;;;2.92;;
76593;SDS011;65482;50.240;14.302;2023-04-15T06:25:49;2.88;;;2.40;;
76593;SDS011;65482;50.240;14.302;2023-04-15T06:28:15;3.33;;;2.78;;
76593;SDS011;65482;50.240;14.302;2023-04-15T06:30:41;2.85;;;2.53;;
76593;SDS011;65482;50.240;14.302;2023-04-15T06:33:07;3.50;;;2.42;;
76593;SDS011;65482;50.240;14.302;2023-04-15T06:35:33;4.72;;;2.60;;
76593;SDS011;65482;50.240;14.302;2023-04-15T06:37:58;3.00;;;2.17;;
76593;SDS011;65482;50.240;14.302;2023-04-15T06:40:24;4.75;;;2.45;;
76593;SDS011;65482;50.240;14.302;2023-04-15T06:42:49;3.38;;;2.65;;
76593;SDS011;65482;50.240;14.302;2023-04-15T06:45:15;3.28;;;2.50;;
76593;SDS011;65482;50.240;14.302;2023-04-15T06:47:41;3.47;;;2.40;;
76593;SDS011;65482;50.240;14.302;2023-04-15T06:50:08;3.30;;;2.40;;
76593;SDS011;65482;50.240;14.302;2023-04-15T06:52:34;2.80;;;2.50;;
76593;SDS011;65482;50.240;14.302;2023-04-15T06:55:00;3.13;;;2.60;;
76593;SDS011;65482;50.240;14.302;2023-04-15T06:57:26;3.22;;;2.47;;
76593;SDS011;65482;50.240;14.302;2023-04-15T06:59:53;3.20;;;2.60;;
76593;SDS011;65482;50.240;14.302;2023-04-15T07:02:19;3.58;;;2.70;;
76593;SDS011;65482;50.240;14.302;2023-04-15T07:04:45;3.80;;;2.30;;
76593;SDS011;65482;50.240;14.302;2023-04-15T07:07:10;3.15;;;2.17;;
76593;SDS011;65482;50.240;14.302;2023-04-15T07:09:36;1.95;;;1.55;;
76593;SDS011;65482;50.240;14.302;2023-04-15T07:12:02;2.47;;;1.75;;
76593;SDS011;65482;50.240;14.302;2023-04-15T07:14:28;1.67;;;1.50;;
76593;SDS011;65482;50.240;14.302;2023-04-15T07:16:54;2.42;;;1.80;;
76593;SDS011;65482;50.240;14.302;2023-04-15T07:19:20;1.80;;;1.70;;
76593;SDS011;65482;50.240;14.302;2023-04-15T07:21:46;1.83;;;1.30;;
76593;SDS011;65482;50.240;14.302;2023-04-15T07:24:12;1.02;;;0.93;;
76593;SDS011;65482;50.240;14.302;2023-04-15T07:26:41;1.80;;;1.00;;
76593;SDS011;65482;50.240;14.302;2023-04-15T07:29:07;1.95;;;1.02;;
76593;SDS011;65482;50.240;14.302;2023-04-15T07:31:32;0.93;;;0.82;;
76593;SDS011;65482;50.240;14.302;2023-04-15T07:33:58;0.77;;;0.70;;
76593;SDS011;65482;50.240;14.302;2023-04-15T07:36:23;0.65;;;0.65;;
76593;SDS011;65482;50.240;14.302;2023-04-15T07:38:49;0.82;;;0.80;;
76593;SDS011;65482;50.240;14.302;2023-04-15T07:41:15;3.75;;;1.10;;
76593;SDS011;65482;50.240;14.302;2023-04-15T07:43:42;1.35;;;1.00;;
76593;SDS011;65482;50.240;14.302;2023-04-15T07:46:07;1.15;;;0.90;;
76593;SDS011;65482;50.240;14.302;2023-04-15T07:48:33;1.10;;;1.00;;
76593;SDS011;65482;50.240;14.302;2023-04-15T07:50:59;1.15;;;0.98;;
76593;SDS011;65482;50.240;14.302;2023-04-15T07:53:27;1.23;;;0.90;;
76593;SDS011;65482;50.240;14.302;2023-04-15T07:55:53;1.23;;;0.95;;
76593;SDS011;65482;50.240;14.302;2023-04-15T07:58:18;1.42;;;1.00;;
76593;SDS011;65482;50.240;14.302;2023-04-15T08:00:44;1.92;;;1.00;;
76593;SDS011;65482;50.240;14.302;2023-04-15T08:03:10;1.02;;;0.70;;
76593;SDS011;65482;50.240;14.302;2023-04-15T08:05:35;1.20;;;0.98;;
76593;SDS011;65482;50.240;14.302;2023-04-15T08:08:01;1.23;;;1.10;;
76593;SDS011;65482;50.240;14.302;2023-04-15T08:10:28;2.13;;;1.00;;
76593;SDS011;65482;50.240;14.302;2023-04-15T08:12:54;2.08;;;1.27;;
76593;SDS011;65482;50.240;14.302;2023-04-15T08:15:20;3.30;;;1.00;;
76593;SDS011;65482;50.240;14.302;2023-04-15T08:17:47;1.20;;;0.95;;
76593;SDS011;65482;50.240;14.302;2023-04-15T08:20:12;1.67;;;1.00;;
76593;SDS011;65482;50.240;14.302;2023-04-15T08:22:38;1.10;;;1.00;;
76593;SDS011;65482;50.240;14.302;2023-04-15T08:25:05;1.45;;;1.20;;
76593;SDS011;65482;50.240;14.302;2023-04-15T08:27:31;1.15;;;1.00;;
76593;SDS011;65482;50.240;14.302;2023-04-15T08:29:56;1.40;;;1.10;;
76593;SDS011;65482;50.240;14.302;2023-04-15T08:32:22;2.58;;;1.15;;
76593;SDS011;65482;50.240;14.302;2023-04-15T08:34:50;1.65;;;1.08;;
76593;SDS011;65482;50.240;14.302;2023-04-15T08:37:16;2.22;;;1.30;;
76593;SDS011;65482;50.240;14.302;2023-04-15T08:39:41;1.67;;;1.20;;
76593;SDS011;65482;50.240;14.302;2023-04-15T08:42:14;2.55;;;1.08;;
76593;SDS011;65482;50.240;14.302;2023-04-15T08:44:42;1.15;;;1.00;;
76593;SDS011;65482;50.240;14.302;2023-04-15T08:47:09;1.17;;;0.98;;
76593;SDS011;65482;50.240;14.302;2023-04-15T08:49:39;3.28;;;1.10;;
76593;SDS011;65482;50.240;14.302;2023-04-15T08:52:06;2.60;;;1.10;;
76593;SDS011;65482;50.240;14.302;2023-04-15T08:54:33;1.55;;;1.17;;
76593;SDS011;65482;50.240;14.302;2023-04-15T08:57:00;2.40;;;1.05;;
76593;SDS011;65482;50.240;14.302;2023-04-15T08:59:27;1.40;;;1.10;;
76593;SDS011;65482;50.240;14.302;2023-04-15T09:01:56;1.40;;;1.13;;
76593;SDS011;65482;50.240;14.302;2023-04-15T09:04:22;1.38;;;1.27;;
76593;SDS011;65482;50.240;14.302;2023-04-15T09:06:48;1.17;;;1.08;;
76593;SDS011;65482;50.240;14.302;2023-04-15T09:09:13;3.03;;;1.30;;
76593;SDS011;65482;50.240;14.302;2023-04-15T09:11:39;1.60;;;1.40;;
76593;SDS011;65482;50.240;14.302;2023-04-15T09:14:05;1.48;;;1.20;;
76593;SDS011;65482;50.240;14.302;2023-04-15T09:19:21;1.63;;;1.30;;
76593;SDS011;65482;50.240;14.302;2023-04-15T09:21:48;1.20;;;1.10;;
76593;SDS011;65482;50.240;14.302;2023-04-15T09:24:15;1.60;;;1.10;;
76593;SDS011;65482;50.240;14.302;2023-04-15T09:26:41;1.70;;;1.30;;
76593;SDS011;65482;50.240;14.302;2023-04-15T09:29:10;1.30;;;1.20;;
76593;SDS011;65482;50.240;14.302;2023-04-15T09:31:40;1.52;;;1.20;;
76593;SDS011;65482;50.240;14.302;2023-04-15T09:34:07;1.25;;;1.15;;
76593;SDS011;65482;50.240;14.302;2023-04-15T09:39:10;1.63;;;1.30;;
76593;SDS011;65482;50.240;14.302;2023-04-15T09:41:36;1.50;;;1.20;;
76593;SDS011;65482;50.240;14.302;2023-04-15T09:44:02;1.70;;;1.38;;
76593;SDS011;65482;50.240;14.302;2023-04-15T09:46:41;1.80;;;1.40;;
76593;SDS011;65482;50.240;14.302;2023-04-15T09:49:09;1.90;;;1.33;;
76593;SDS011;65482;50.240;14.302;2023-04-15T09:51:35;1.40;;;1.30;;
76593;SDS011;65482;50.240;14.302;2023-04-15T09:54:02;2.08;;;1.65;;
76593;SDS011;65482;50.240;14.302;2023-04-15T09:56:33;1.63;;;1.50;;
76593;SDS011;65482;50.240;14.302;2023-04-15T09:59:06;1.70;;;1.58;;
76593;SDS011;65482;50.240;14.302;2023-04-15T10:01:33;2.63;;;1.58;;
76593;SDS011;65482;50.240;14.302;2023-04-15T10:03:58;2.63;;;1.88;;
76593;SDS011;65482;50.240;14.302;2023-04-15T10:06:28;2.20;;;1.60;;
76593;SDS011;65482;50.240;14.302;2023-04-15T10:08:54;1.83;;;1.60;;
76593;SDS011;65482;50.240;14.302;2023-04-15T10:11:21;2.33;;;1.80;;
76593;SDS011;65482;50.240;14.302;2023-04-15T10:13:49;2.13;;;1.80;;
76593;SDS011;65482;50.240;14.302;2023-04-15T10:16:18;2.50;;;1.90;;
76593;SDS011;65482;50.240;14.302;2023-04-15T10:18:46;2.50;;;1.98;;
76593;SDS011;65482;50.240;14.302;2023-04-15T10:21:13;2.38;;;2.10;;
76593;SDS011;65482;50.240;14.302;2023-04-15T10:23:42;4.82;;;1.88;;
76593;SDS011;65482;50.240;14.302;2023-04-15T10:26:11;1.75;;;1.65;;
76593;SDS011;65482;50.240;14.302;2023-04-15T10:28:39;2.35;;;2.15;;
76593;SDS011;65482;50.240;14.302;2023-04-15T10:31:06;2.15;;;1.95;;
76593;SDS011;65482;50.240;14.302;2023-04-15T10:33:31;2.10;;;1.90;;
76593;SDS011;65482;50.240;14.302;2023-04-15T10:35:59;2.72;;;1.95;;
76593;SDS011;65482;50.240;14.302;2023-04-15T10:38:36;2.30;;;2.00;;
76593;SDS011;65482;50.240;14.302;2023-04-15T10:46:17;2.35;;;2.15;;
76593;SDS011;65482;50.240;14.302;2023-04-15T10:48:51;2.22;;;2.00;;
76593;SDS011;65482;50.240;14.302;2023-04-15T10:51:28;2.30;;;2.10;;
76593;SDS011;65482;50.240;14.302;2023-04-15T10:53:55;2.58;;;2.30;;
76593;SDS011;65482;50.240;14.302;2023-04-15T10:56:23;2.28;;;2.08;;
76593;SDS011;65482;50.240;14.302;2023-04-15T10:58:48;2.17;;;1.98;;
76593;SDS011;65482;50.240;14.302;2023-04-15T11:01:14;2.53;;;2.10;;
76593;SDS011;65482;50.240;14.302;2023-04-15T11:03:41;2.63;;;2.30;;
76593;SDS011;65482;50.240;14.302;2023-04-15T11:06:07;1.95;;;1.80;;
76593;SDS011;65482;50.240;14.302;2023-04-15T11:11:37;2.58;;;2.28;;
76593;SDS011;65482;50.240;14.302;2023-04-15T11:14:27;3.42;;;2.33;;
76593;SDS011;65482;50.240;14.302;2023-04-15T11:16:53;2.50;;;2.15;;
76593;SDS011;65482;50.240;14.302;2023-04-15T11:19:18;2.42;;;2.10;;
76593;SDS011;65482;50.240;14.302;2023-04-15T11:21:44;2.40;;;2.20;;
76593;SDS011;65482;50.240;14.302;2023-04-15T11:24:10;2.50;;;2.10;;
76593;SDS011;65482;50.240;14.302;2023-04-15T11:26:35;2.20;;;2.00;;
76593;SDS011;65482;50.240;14.302;2023-04-15T11:29:01;2.72;;;2.20;;
76593;SDS011;65482;50.240;14.302;2023-04-15T11:31:27;3.30;;;2.10;;
76593;SDS011;65482;50.240;14.302;2023-04-15T11:33:59;2.70;;;2.25;;
76593;SDS011;65482;50.240;14.302;2023-04-15T11:36:28;2.95;;;2.25;;
76593;SDS011;65482;50.240;14.302;2023-04-15T11:38:56;2.30;;;2.10;;
76593;SDS011;65482;50.240;14.302;2023-04-15T11:41:23;11.93;;;8.95;;
76593;SDS011;65482;50.240;14.302;2023-04-15T11:43:49;3.58;;;2.90;;
76593;SDS011;65482;50.240;14.302;2023-04-15T11:46:15;2.95;;;2.28;;
76593;SDS011;65482;50.240;14.302;2023-04-15T11:48:42;2.67;;;2.33;;
76593;SDS011;65482;50.240;14.302;2023-04-15T11:51:09;2.83;;;2.13;;
76593;SDS011;65482;50.240;14.302;2023-04-15T11:53:47;2.88;;;2.28;;
76593;SDS011;65482;50.240;14.302;2023-04-15T11:56:24;2.40;;;2.20;;
76593;SDS011;65482;50.240;14.302;2023-04-15T11:58:51;2.90;;;2.10;;
76593;SDS011;65482;50.240;14.302;2023-04-15T12:01:20;2.58;;;2.28;;
76593;SDS011;65482;50.240;14.302;2023-04-15T12:03:55;2.30;;;2.10;;
76593;SDS011;65482;50.240;14.302;2023-04-15T12:06:24;3.03;;;2.30;;
76593;SDS011;65482;50.240;14.302;2023-04-15T12:11:49;2.20;;;2.00;;
76593;SDS011;65482;50.240;14.302;2023-04-15T12:16:57;2.10;;;1.90;;
76593;SDS011;65482;50.240;14.302;2023-04-15T12:19:29;2.33;;;2.05;;
76593;SDS011;65482;50.240;14.302;2023-04-15T12:22:08;3.80;;;2.30;;
76593;SDS011;65482;50.240;14.302;2023-04-15T12:24:36;2.80;;;2.10;;
76593;SDS011;65482;50.240;14.302;2023-04-15T12:27:03;2.17;;;1.98;;
76593;SDS011;65482;50.240;14.302;2023-04-15T12:29:34;2.60;;;2.10;;
76593;SDS011;65482;50.240;14.302;2023-04-15T12:34:31;3.10;;;2.00;;
76593;SDS011;65482;50.240;14.302;2023-04-15T12:36:58;4.20;;;2.20;;
76593;SDS011;65482;50.240;14.302;2023-04-15T12:39:26;2.58;;;2.10;;
76593;SDS011;65482;50.240;14.302;2023-04-15T12:41:53;2.08;;;1.80;;
76593;SDS011;65482;50.240;14.302;2023-04-15T12:44:23;4.07;;;2.10;;
76593;SDS011;65482;50.240;14.302;2023-04-15T12:46:49;3.28;;;2.20;;
76593;SDS011;65482;50.240;14.302;2023-04-15T12:49:17;2.60;;;2.40;;
76593;SDS011;65482;50.240;14.302;2023-04-15T12:51:46;2.28;;;2.08;;
76593;SDS011;65482;50.240;14.302;2023-04-15T12:54:13;5.50;;;1.95;;
76593;SDS011;65482;50.240;14.302;2023-04-15T12:56:38;2.75;;;2.20;;
76593;SDS011;65482;50.240;14.302;2023-04-15T12:59:04;3.15;;;2.47;;
76593;SDS011;65482;50.240;14.302;2023-04-15T13:01:30;2.53;;;2.10;;
76593;SDS011;65482;50.240;14.302;2023-04-15T13:03:56;2.72;;;2.13;;
76593;SDS011;65482;50.240;14.302;2023-04-15T13:06:21;2.65;;;2.15;;
76593;SDS011;65482;50.240;14.302;2023-04-15T13:08:48;2.55;;;2.20;;
76593;SDS011;65482;50.240;14.302;2023-04-15T13:11:13;4.78;;;3.67;;
76593;SDS011;65482;50.240;14.302;2023-04-15T13:13:39;2.58;;;2.25;;
76593;SDS011;65482;50.240;14.302;2023-04-15T13:16:05;2.67;;;2.10;;
76593;SDS011;65482;50.240;14.302;2023-04-15T13:18:31;2.70;;;2.20;;
76593;SDS011;65482;50.240;14.302;2023-04-15T13:20:58;3.15;;;2.05;;
76593;SDS011;65482;50.240;14.302;2023-04-15T13:23:25;3.03;;;2.30;;
76593;SDS011;65482;50.240;14.302;2023-04-15T13:25:50;2.97;;;1.75;;
76593;SDS011;65482;50.240;14.302;2023-04-15T13:28:16;2.65;;;2.38;;
76593;SDS011;65482;50.240;14.302;2023-04-15T13:30:42;2.17;;;1.98;;
76593;SDS011;65482;50.240;14.302;2023-04-15T13:33:08;3.38;;;2.25;;
76593;SDS011;65482;50.240;14.302;2023-04-15T13:35:34;3.83;;;2.22;;
76593;SDS011;65482;50.240;14.302;2023-04-15T13:38:00;2.50;;;2.28;;
76593;SDS011;65482;50.240;14.302;2023-04-15T13:40:25;3.40;;;2.97;;
76593;SDS011;65482;50.240;14.302;2023-04-15T13:42:51;4.00;;;2.55;;
76593;SDS011;65482;50.240;14.302;2023-04-15T13:45:17;3.05;;;2.50;;
76593;SDS011;65482;50.240;14.302;2023-04-15T13:47:43;3.33;;;2.70;;
76593;SDS011;65482;50.240;14.302;2023-04-15T13:50:09;2.65;;;2.00;;
76593;SDS011;65482;50.240;14.302;2023-04-15T13:52:35;5.07;;;2.20;;
76593;SDS011;65482;50.240;14.302;2023-04-15T13:55:01;2.40;;;2.10;;
76593;SDS011;65482;50.240;14.302;2023-04-15T13:57:29;2.58;;;2.25;;
76593;SDS011;65482;50.240;14.302;2023-04-15T13:59:55;3.85;;;2.40;;
76593;SDS011;65482;50.240;14.302;2023-04-15T14:02:22;4.20;;;2.63;;
76593;SDS011;65482;50.240;14.302;2023-04-15T14:04:48;3.30;;;2.70;;
76593;SDS011;65482;50.240;14.302;2023-04-15T14:07:14;3.05;;;2.75;;
76593;SDS011;65482;50.240;14.302;2023-04-15T14:09:40;2.80;;;2.45;;
76593;SDS011;65482;50.240;14.302;2023-04-15T14:12:05;3.50;;;2.80;;
76593;SDS011;65482;50.240;14.302;2023-04-15T14:14:31;3.92;;;2.70;;
76593;SDS011;65482;50.240;14.302;2023-04-15T14:16:57;3.58;;;2.58;;
76593;SDS011;65482;50.240;14.302;2023-04-15T14:19:23;4.60;;;2.20;;
76593;SDS011;65482;50.240;14.302;2023-04-15T14:21:49;3.58;;;2.13;;
76593;SDS011;65482;50.240;14.302;2023-04-15T14:24:14;3.58;;;2.30;;
76593;SDS011;65482;50.240;14.302;2023-04-15T14:26:41;2.75;;;2.42;;
76593;SDS011;65482;50.240;14.302;2023-04-15T14:29:07;3.28;;;2.70;;
76593;SDS011;65482;50.240;14.302;2023-04-15T14:31:33;3.47;;;2.80;;
76593;SDS011;65482;50.240;14.302;2023-04-15T14:33:59;4.68;;;3.60;;
76593;SDS011;65482;50.240;14.302;2023-04-15T14:36:25;4.35;;;2.85;;
76593;SDS011;65482;50.240;14.302;2023-04-15T14:38:51;3.40;;;2.50;;
76593;SDS011;65482;50.240;14.302;2023-04-15T14:41:17;4.35;;;2.80;;
76593;SDS011;65482;50.240;14.302;2023-04-15T14:43:42;5.13;;;3.00;;
76593;SDS011;65482;50.240;14.302;2023-04-15T14:46:09;4.72;;;3.10;;
76593;SDS011;65482;50.240;14.302;2023-04-15T14:48:35;4.97;;;3.50;;
76593;SDS011;65482;50.240;14.302;2023-04-15T14:51:01;4.72;;;3.28;;